リュブリャナ の空港の天気 - METARとTAF

リュブリャナ空港 ( LJLJ / LJU ) - スロベニア リュブリャナ
飛行場実況気象(Metar)
観測時間03/09 08:30 CET (03/09 07:30 UTC)
風向・風速不定 1m/s
視程10km以上
天気現象
少しの雲 雲底高度 1220m
全天の4割程度の雲 雲底高度 1520m
気温2℃
湿度69%
気圧1019hPa
METARLJLJ 090730Z VRB02KT 9999 FEW040 SCT050 02/M03 Q1019 NOSIG
過去の天気等 Google飛行場航空写真 Wunderground天気予報

過去48時間のMETAR

飛行場予報(TAF)
発表時間: 3/09 06:00 CET (3/09 05:00 UTC)
予報対象時間: 9日7時 CET ~ 10日7時 CET
風向・風速南東 3m/s
視程10km以上
少しの雲 雲底高度 1160m
全天の8割程度の雲 雲底高度 1520m
9日12時 CET ~ 9日18時 CET に 確率 40% で一時的に
風向・風速東南東 6m/s
TAF LJLJ 090500Z 0906/1006 13005KT 9999 FEW038 BKN050
PROB40 TEMPO 0911/0917 12012KT